createdAt,value
2022-10-17T00:00:11.959Z,3.88
2022-10-17T00:02:39.069Z,5.32
2022-10-17T00:05:12.433Z,4.13
2022-10-17T00:07:40.900Z,5.80
2022-10-17T00:10:15.531Z,4.05
2022-10-17T00:12:42.793Z,4.45
2022-10-17T00:15:16.464Z,3.88
2022-10-17T00:17:43.740Z,4.03
2022-10-17T00:20:31.497Z,3.70
2022-10-17T00:23:05.339Z,4.38
2022-10-17T00:25:32.553Z,3.90
2022-10-17T00:27:59.818Z,4.45
2022-10-17T00:30:33.494Z,4.07
2022-10-17T00:33:00.660Z,5.07
2022-10-17T00:35:34.549Z,4.28
2022-10-17T00:38:01.703Z,4.20
2022-10-17T00:40:28.807Z,5.40
2022-10-17T00:43:02.471Z,3.58
2022-10-17T00:45:30.703Z,4.95
2022-10-17T00:48:10.441Z,5.03
2022-10-17T00:50:42.141Z,4.90
2022-10-17T00:53:10.261Z,4.85
2022-10-17T00:55:52.432Z,3.97
2022-10-17T00:58:19.765Z,5.72
2022-10-17T01:00:54.569Z,6.68
2022-10-17T01:03:21.781Z,4.60
2022-10-17T01:05:48.879Z,4.05
2022-10-17T01:08:22.463Z,5.00
2022-10-17T01:10:57.320Z,4.57
2022-10-17T01:13:53.546Z,4.45
2022-10-17T01:16:29.240Z,4.60
2022-10-17T01:19:10.520Z,4.53
2022-10-17T01:21:58.444Z,4.57
2022-10-17T01:24:32.516Z,4.47
2022-10-17T01:27:15.075Z,3.65
2022-10-17T01:30:01.512Z,3.70
2022-10-17T01:32:28.854Z,3.75
2022-10-17T01:37:44.136Z,3.38
2022-10-17T01:40:23.503Z,4.50
2022-10-17T01:42:50.673Z,3.25
2022-10-17T01:45:22.152Z,4.10
2022-10-17T01:47:57.434Z,3.78
2022-10-17T01:50:26.331Z,4.65
2022-10-17T01:53:02.581Z,4.15
2022-10-17T01:55:32.862Z,3.92
2022-10-17T01:58:10.434Z,3.83
2022-10-17T02:00:38.538Z,4.05
2022-10-17T02:03:14.444Z,4.40
2022-10-17T02:05:42.218Z,4.53
2022-10-17T02:08:16.458Z,4.25
2022-10-17T02:10:52.896Z,4.88
2022-10-17T02:13:31.708Z,4.75
2022-10-17T02:16:09.483Z,3.60
2022-10-17T02:18:49.569Z,4.57
2022-10-17T02:21:50.446Z,4.13
2022-10-17T02:24:44.615Z,4.20
2022-10-17T02:27:15.427Z,5.35
2022-10-17T02:29:57.595Z,4.82
2022-10-17T02:32:28.055Z,4.68
2022-10-17T02:34:56.803Z,4.45
2022-10-17T02:37:33.597Z,4.45
2022-10-17T02:40:01.316Z,4.30
2022-10-17T02:42:36.498Z,4.55
2022-10-17T02:45:04.862Z,4.53
2022-10-17T02:47:50.608Z,4.50
2022-10-17T02:50:17.992Z,4.50
2022-10-17T02:52:49.314Z,3.22
2022-10-17T02:55:28.655Z,4.03
2022-10-17T02:57:58.057Z,4.50
2022-10-17T03:00:39.478Z,3.95
2022-10-17T03:03:19.372Z,5.32
2022-10-17T03:05:53.544Z,3.83
2022-10-17T03:08:20.851Z,4.55
2022-10-17T03:10:54.523Z,4.53
2022-10-17T03:13:21.790Z,4.40
2022-10-17T03:15:48.963Z,4.20
2022-10-17T03:18:22.462Z,4.32
2022-10-17T03:21:09.396Z,5.40
2022-10-17T03:23:43.500Z,4.47
2022-10-17T03:26:10.641Z,3.95
2022-10-17T03:28:37.927Z,4.25
2022-10-17T03:31:15.504Z,4.43
2022-10-17T03:33:42.778Z,4.35
2022-10-17T03:36:21.545Z,3.75
2022-10-17T03:38:48.961Z,3.58
2022-10-17T03:41:16.109Z,4.57
2022-10-17T03:43:49.483Z,4.45
2022-10-17T03:48:55.530Z,3.70
2022-10-17T03:51:22.714Z,3.92
2022-10-17T03:53:49.840Z,3.78
2022-10-17T03:56:24.496Z,4.13
2022-10-17T03:58:51.680Z,3.55
2022-10-17T04:01:26.711Z,4.45
2022-10-17T04:03:54.882Z,4.70
2022-10-17T04:06:22.805Z,3.80
2022-10-17T04:08:57.519Z,4.68
2022-10-17T04:11:24.769Z,3.92
2022-10-17T04:14:02.577Z,4.65
2022-10-17T04:16:29.784Z,3.95
2022-10-17T04:18:57.664Z,3.58
2022-10-17T04:21:31.661Z,4.50
2022-10-17T04:23:59.987Z,3.70
2022-10-17T04:26:27.659Z,3.97
2022-10-17T04:29:01.642Z,4.75
2022-10-17T04:31:28.913Z,3.22
2022-10-17T04:33:56.002Z,3.63
2022-10-17T04:36:29.500Z,4.07
2022-10-17T04:38:56.736Z,3.45
2022-10-17T04:41:30.502Z,3.88
2022-10-17T04:43:57.651Z,4.43
2022-10-17T04:46:31.480Z,4.25
2022-10-17T04:48:58.623Z,4.38
2022-10-17T04:51:32.493Z,4.78
2022-10-17T04:53:59.773Z,3.45
2022-10-17T04:56:33.491Z,3.28
2022-10-17T04:59:00.756Z,4.07
2022-10-17T05:01:34.553Z,3.83
2022-10-17T05:04:01.722Z,3.55
2022-10-17T05:06:28.849Z,3.85
2022-10-17T05:09:04.542Z,4.00
2022-10-17T05:11:31.747Z,4.13
2022-10-17T05:14:02.550Z,4.07
2022-10-17T05:16:36.563Z,4.20
2022-10-17T05:19:10.415Z,4.10
2022-10-17T05:21:50.601Z,4.10
2022-10-17T05:24:17.855Z,4.72
2022-10-17T05:26:51.617Z,3.70
2022-10-17T05:29:18.879Z,4.10
2022-10-17T05:31:45.987Z,4.60
2022-10-17T05:34:19.508Z,3.55
2022-10-17T05:36:46.713Z,4.05
2022-10-17T05:39:21.558Z,4.72
2022-10-17T05:41:48.936Z,3.88
2022-10-17T05:44:16.067Z,4.30
2022-10-17T05:46:49.625Z,9.32
2022-10-17T05:49:32.171Z,14.73
2022-10-17T05:52:10.656Z,10.07
2022-10-17T05:54:37.773Z,4.47
2022-10-17T05:57:05.022Z,5.13
2022-10-17T05:59:38.653Z,5.40
2022-10-17T06:02:05.955Z,5.10
2022-10-17T06:04:39.552Z,6.03
2022-10-17T06:07:06.666Z,5.22
2022-10-17T06:09:40.589Z,5.30
2022-10-17T06:12:08.259Z,5.82
2022-10-17T06:14:35.412Z,6.03
2022-10-17T06:17:14.851Z,5.72
2022-10-17T06:19:44.663Z,19.00
2022-10-17T06:22:25.534Z,34.28
2022-10-17T06:24:53.724Z,18.80
2022-10-17T06:27:27.687Z,10.82
2022-10-17T06:29:54.862Z,7.13
2022-10-17T06:32:21.934Z,6.13
2022-10-17T06:34:55.632Z,4.78
2022-10-17T06:37:22.799Z,6.03
2022-10-17T06:39:56.707Z,6.22
2022-10-17T06:42:23.893Z,5.18
2022-10-17T06:44:50.976Z,6.07
2022-10-17T06:47:24.541Z,5.68
2022-10-17T06:49:51.721Z,4.85
2022-10-17T06:52:25.714Z,5.63
2022-10-17T06:54:52.911Z,6.57
2022-10-17T06:57:20.039Z,5.85
2022-10-17T06:59:53.638Z,4.95
2022-10-17T07:02:21.147Z,5.75
2022-10-17T07:04:54.597Z,5.28
2022-10-17T07:07:21.774Z,6.65
2022-10-17T07:09:48.854Z,5.78
2022-10-17T07:12:22.642Z,5.55
2022-10-17T07:14:50.478Z,6.25
2022-10-17T07:17:25.629Z,4.55
2022-10-17T07:19:52.821Z,5.70
2022-10-17T07:22:39.648Z,6.45
2022-10-17T07:25:07.139Z,5.10
2022-10-17T07:27:34.344Z,5.43
2022-10-17T07:30:08.510Z,5.10
2022-10-17T07:32:35.696Z,4.90
2022-10-17T07:35:09.674Z,4.85
2022-10-17T07:37:36.987Z,5.32
2022-10-17T07:40:04.880Z,5.38
2022-10-17T07:45:07.080Z,5.22
2022-10-17T07:50:09.928Z,5.95
2022-10-17T07:52:37.094Z,4.85
2022-10-17T07:55:10.653Z,14.68
2022-10-17T07:57:37.973Z,70.82
2022-10-17T08:00:05.494Z,11.07
2022-10-17T08:02:39.573Z,29.15
2022-10-17T08:05:06.980Z,15.15
2022-10-17T08:07:40.562Z,9.20
2022-10-17T08:12:36.381Z,13.70
2022-10-17T08:15:10.687Z,13.75
2022-10-17T08:17:38.888Z,10.55
2022-10-17T08:20:07.078Z,6.68
2022-10-17T08:22:40.703Z,5.57
2022-10-17T08:25:08.214Z,5.95
2022-10-17T08:30:09.166Z,5.53
2022-10-17T08:32:36.246Z,5.53
2022-10-17T08:35:09.707Z,6.47
2022-10-17T08:37:36.948Z,5.15
2022-10-17T08:40:04.284Z,7.22
2022-10-17T08:42:47.693Z,6.35
2022-10-17T08:45:33.313Z,5.03
2022-10-17T08:48:11.743Z,6.15
2022-10-17T08:50:41.290Z,6.25
2022-10-17T08:53:08.545Z,5.25
2022-10-17T08:55:49.562Z,4.97
2022-10-17T08:58:19.694Z,5.63
2022-10-17T09:01:13.223Z,5.82
2022-10-17T09:03:50.488Z,6.15
2022-10-17T09:06:25.416Z,6.20
2022-10-17T09:09:18.619Z,4.85
2022-10-17T09:12:31.648Z,5.57
2022-10-17T09:15:24.504Z,6.35
2022-10-17T09:17:56.788Z,6.78
2022-10-17T09:20:35.473Z,5.88
2022-10-17T09:23:24.666Z,8.25
2022-10-17T09:26:01.484Z,8.85
2022-10-17T09:28:31.521Z,12.43
2022-10-17T09:31:23.496Z,9.77
2022-10-17T09:33:55.930Z,18.60
2022-10-17T09:36:50.516Z,7.78
2022-10-17T09:39:19.602Z,5.63
2022-10-17T09:41:59.510Z,5.30
2022-10-17T09:44:33.975Z,5.18
2022-10-17T09:47:13.523Z,4.85
2022-10-17T09:49:42.234Z,5.47
2022-10-17T09:52:21.524Z,6.05
2022-10-17T09:55:03.533Z,6.13
2022-10-17T09:57:57.634Z,5.13
2022-10-17T10:00:26.466Z,5.75
2022-10-17T10:03:15.648Z,5.85
2022-10-17T10:05:43.959Z,6.13
2022-10-17T10:08:22.551Z,4.68
2022-10-17T10:11:18.629Z,5.53
2022-10-17T10:13:55.533Z,5.68
2022-10-17T10:16:32.379Z,5.28
2022-10-17T10:19:08.431Z,5.13
2022-10-17T10:22:08.675Z,5.75
2022-10-17T10:27:17.473Z,4.38
2022-10-17T10:29:56.636Z,5.32
2022-10-17T10:32:33.839Z,5.30
2022-10-17T10:35:26.528Z,5.53
2022-10-17T10:37:55.016Z,4.57
2022-10-17T10:40:31.518Z,5.43
2022-10-17T10:43:04.847Z,5.28
2022-10-17T10:45:48.433Z,4.68
2022-10-17T10:48:23.844Z,6.15
2022-10-17T10:50:59.526Z,4.63
2022-10-17T10:53:47.955Z,5.22
2022-10-17T10:56:29.732Z,5.28
2022-10-17T10:59:05.032Z,5.50
2022-10-17T11:02:00.549Z,5.13
2022-10-17T11:04:35.213Z,4.28
2022-10-17T11:07:18.560Z,4.53
2022-10-17T11:09:59.353Z,4.75
2022-10-17T11:12:36.561Z,4.30
2022-10-17T11:15:21.648Z,4.82
2022-10-17T11:18:04.041Z,4.93
2022-10-17T11:20:41.716Z,4.38
2022-10-17T11:23:21.299Z,5.80
2022-10-17T11:25:57.649Z,4.90
2022-10-17T11:28:25.751Z,4.50
2022-10-17T11:31:08.129Z,4.00
2022-10-17T11:33:47.124Z,4.88
2022-10-17T11:36:21.651Z,4.88
2022-10-17T11:38:51.708Z,3.97
2022-10-17T11:41:28.732Z,4.60
2022-10-17T11:43:58.873Z,4.95
2022-10-17T11:46:42.919Z,4.88
2022-10-17T11:49:20.321Z,4.40
2022-10-17T11:52:01.465Z,5.13
2022-10-17T11:54:35.538Z,4.20
2022-10-17T11:57:24.760Z,4.22
2022-10-17T12:00:10.455Z,4.40
2022-10-17T12:02:49.681Z,4.95
2022-10-17T12:05:25.882Z,4.55
2022-10-17T12:08:12.663Z,4.60
2022-10-17T12:10:39.743Z,3.95
2022-10-17T12:13:31.754Z,4.70
2022-10-17T12:16:19.162Z,4.78
2022-10-17T12:18:53.657Z,4.47
2022-10-17T12:21:31.287Z,4.68
2022-10-17T12:24:16.746Z,4.43
2022-10-17T12:26:45.947Z,4.00
2022-10-17T12:29:33.651Z,5.60
2022-10-17T12:32:13.317Z,9.77
2022-10-17T12:34:46.782Z,5.35
2022-10-17T12:37:15.075Z,14.57
2022-10-17T12:39:49.637Z,6.78
2022-10-17T12:42:46.428Z,4.45
2022-10-17T12:45:38.668Z,4.10
2022-10-17T12:48:09.760Z,4.45
2022-10-17T12:51:23.768Z,4.13
2022-10-17T12:53:50.027Z,24.60
2022-10-17T12:56:26.712Z,35.70
2022-10-17T12:58:54.372Z,7.95
2022-10-17T13:03:59.735Z,16.05
2022-10-17T13:06:29.526Z,4.43
2022-10-17T13:09:07.689Z,7.40
2022-10-17T13:11:36.684Z,3.88
2022-10-17T13:14:11.628Z,4.68
2022-10-17T13:16:39.994Z,3.88
2022-10-17T13:19:21.828Z,4.57
2022-10-17T13:22:05.328Z,5.20
2022-10-17T13:24:47.643Z,4.10
2022-10-17T13:27:34.017Z,3.97
2022-10-17T13:30:08.702Z,4.85
2022-10-17T13:32:40.798Z,4.78
2022-10-17T13:35:15.843Z,4.32
2022-10-17T13:37:53.989Z,4.22
2022-10-17T13:40:44.135Z,3.85
2022-10-17T13:43:26.732Z,4.15
2022-10-17T13:46:09.338Z,4.75
2022-10-17T13:48:53.631Z,4.22
2022-10-17T13:51:20.952Z,4.03
2022-10-17T13:53:48.188Z,4.30
2022-10-17T13:56:29.284Z,4.63
2022-10-17T13:59:01.960Z,3.90
2022-10-17T14:01:36.802Z,3.42
2022-10-17T14:04:19.542Z,4.10
2022-10-17T14:25:02.281Z,4.80
2022-10-17T14:27:44.599Z,4.43
2022-10-17T14:30:51.711Z,4.40
2022-10-17T14:33:27.610Z,4.85
2022-10-17T14:35:56.456Z,3.70
2022-10-17T14:38:30.597Z,3.95
2022-10-17T14:41:09.772Z,3.83
2022-10-17T14:43:52.619Z,3.37
2022-10-17T14:46:20.022Z,4.38
2022-10-17T14:48:52.169Z,3.55
2022-10-17T14:51:26.667Z,3.47
2022-10-17T14:54:05.606Z,3.65
2022-10-17T14:56:49.791Z,4.03
2022-10-17T14:59:51.717Z,3.47
2022-10-17T15:02:16.816Z,3.28
2022-10-17T15:04:43.994Z,3.25
2022-10-17T15:07:14.536Z,3.58
2022-10-17T15:09:48.698Z,4.90
2022-10-17T15:12:27.836Z,3.55
2022-10-17T15:14:55.316Z,3.13
2022-10-17T15:17:32.689Z,3.75
2022-10-17T15:20:00.349Z,4.85
2022-10-17T15:25:07.848Z,3.15
2022-10-17T15:27:41.634Z,3.17
2022-10-17T15:30:20.746Z,2.85
2022-10-17T15:32:55.756Z,3.17
2022-10-17T15:35:23.168Z,3.63
2022-10-17T15:37:50.475Z,3.78
2022-10-17T15:40:25.921Z,3.80
2022-10-17T15:42:53.091Z,4.18
2022-10-17T15:45:30.718Z,3.80
2022-10-17T15:47:59.893Z,4.13
2022-10-17T15:50:29.190Z,4.57
2022-10-17T15:53:02.709Z,4.45
2022-10-17T15:55:38.734Z,3.75
2022-10-17T15:58:05.988Z,3.45
2022-10-17T16:00:33.237Z,3.53
2022-10-17T16:03:06.789Z,4.00
2022-10-17T16:05:33.879Z,3.83
2022-10-17T16:08:01.108Z,3.63
2022-10-17T16:10:34.699Z,3.50
2022-10-17T16:13:01.830Z,4.05
2022-10-17T16:15:35.795Z,3.70
2022-10-17T16:18:05.978Z,3.20
2022-10-17T16:20:40.961Z,4.63
2022-10-17T16:23:14.727Z,4.43
2022-10-17T16:25:55.858Z,3.40
2022-10-17T16:28:23.064Z,4.15
2022-10-17T16:30:50.334Z,3.88
2022-10-17T16:33:23.713Z,3.83
2022-10-17T16:35:51.026Z,4.68
2022-10-17T16:38:24.769Z,4.20
2022-10-17T16:40:51.858Z,4.05
2022-10-17T16:43:19.013Z,4.32
2022-10-17T16:45:52.749Z,3.83
2022-10-17T16:48:19.945Z,4.05
2022-10-17T16:50:53.912Z,4.18
2022-10-17T16:53:21.146Z,3.67
2022-10-17T16:56:05.836Z,3.35
2022-10-17T16:58:33.019Z,3.60
2022-10-17T17:01:04.155Z,3.85
2022-10-17T17:03:37.884Z,3.65
2022-10-17T17:06:06.540Z,3.40
2022-10-17T17:08:34.591Z,3.78
2022-10-17T17:11:08.717Z,3.92
2022-10-17T17:13:36.240Z,3.55
2022-10-17T17:18:40.453Z,6.70
2022-10-17T17:21:08.967Z,3.85
2022-10-17T17:23:43.764Z,4.82
2022-10-17T17:26:15.411Z,3.88
2022-10-17T17:28:49.867Z,4.13
2022-10-17T17:31:18.291Z,5.18
2022-10-17T17:33:53.759Z,3.58
2022-10-17T17:36:22.660Z,4.07
2022-10-17T17:38:50.471Z,3.75
2022-10-17T17:41:24.895Z,11.95
2022-10-17T17:43:52.446Z,5.32
2022-10-17T17:48:55.083Z,4.05
2022-10-17T17:51:28.401Z,5.07
2022-10-17T17:54:03.827Z,6.57
2022-10-17T17:56:31.087Z,10.75
2022-10-17T17:59:00.092Z,36.35
2022-10-17T18:01:34.775Z,28.00
2022-10-17T18:04:01.981Z,20.98
2022-10-17T18:06:35.771Z,7.35
2022-10-17T18:09:03.108Z,22.90
2022-10-17T18:11:36.894Z,18.50
2022-10-17T18:14:05.683Z,11.27
2022-10-17T18:16:34.184Z,7.05
2022-10-17T18:19:09.842Z,7.93
2022-10-17T18:21:37.246Z,7.72
2022-10-17T18:24:11.751Z,6.75
2022-10-17T18:26:45.750Z,7.38
2022-10-17T18:29:19.882Z,7.85
2022-10-17T18:31:47.203Z,6.60
2022-10-17T18:34:14.379Z,5.57
2022-10-17T18:36:47.768Z,5.78
2022-10-17T18:39:14.944Z,6.03
2022-10-17T18:41:42.067Z,8.10
2022-10-17T18:44:18.769Z,9.02
2022-10-17T18:46:46.943Z,6.00
2022-10-17T18:49:21.872Z,7.45
2022-10-17T18:51:49.047Z,8.02
2022-10-17T18:54:26.897Z,9.32
2022-10-17T18:56:54.925Z,10.40
2022-10-17T18:59:22.087Z,11.88
2022-10-17T19:01:56.112Z,12.00
2022-10-17T19:04:29.723Z,17.65
2022-10-17T19:06:57.041Z,19.90
2022-10-17T19:09:24.287Z,35.20
2022-10-17T19:11:57.823Z,47.75
2022-10-17T19:14:26.225Z,22.40
2022-10-17T19:16:59.769Z,34.35
2022-10-17T19:19:27.476Z,23.33
2022-10-17T19:22:00.756Z,25.95
2022-10-17T19:24:47.669Z,41.88
2022-10-17T19:27:21.779Z,48.38
2022-10-17T19:29:48.880Z,39.72
2022-10-17T19:32:23.039Z,42.85
2022-10-17T19:34:50.237Z,50.55
2022-10-17T19:37:23.848Z,51.45
2022-10-17T19:39:50.922Z,34.83
2022-10-17T19:42:18.054Z,34.25
2022-10-17T19:44:51.751Z,31.15
2022-10-17T19:47:18.830Z,40.80
2022-10-17T19:49:52.896Z,47.22
2022-10-17T19:52:26.914Z,46.20
2022-10-17T19:55:00.803Z,45.28
2022-10-17T19:57:28.000Z,37.95
2022-10-17T19:59:56.165Z,39.85
2022-10-17T20:02:30.094Z,41.10
2022-10-17T20:05:13.875Z,36.15
2022-10-17T20:07:50.894Z,33.30
2022-10-17T20:10:18.931Z,26.58
2022-10-17T20:12:46.024Z,28.83
2022-10-17T20:15:19.853Z,31.17
2022-10-17T20:17:53.757Z,27.90
2022-10-17T20:20:27.907Z,20.20
2022-10-17T20:22:55.108Z,22.42
2022-10-17T20:25:35.949Z,15.50
2022-10-17T20:28:03.202Z,15.45
2022-10-17T20:30:30.737Z,13.27
2022-10-17T20:35:32.139Z,12.55
2022-10-17T20:37:59.280Z,13.30
2022-10-17T20:40:35.339Z,13.57
2022-10-17T20:43:02.838Z,14.93
2022-10-17T20:45:50.417Z,13.00
2022-10-17T20:48:18.778Z,15.90
2022-10-17T20:50:52.919Z,13.70
2022-10-17T20:53:37.359Z,16.52
2022-10-17T20:56:13.107Z,12.95
2022-10-17T20:58:40.318Z,14.52
2022-10-17T21:01:11.182Z,15.35
2022-10-17T21:03:46.636Z,13.50
2022-10-17T21:06:20.706Z,15.35
2022-10-17T21:08:54.784Z,12.98
2022-10-17T21:11:29.864Z,13.43
2022-10-17T21:14:01.955Z,15.13
2022-10-17T21:16:36.743Z,13.25
2022-10-17T21:19:04.406Z,13.68
2022-10-17T21:24:07.823Z,13.05
2022-10-17T21:26:42.844Z,10.32
2022-10-17T21:29:16.795Z,8.30
2022-10-17T21:31:44.884Z,7.38
2022-10-17T21:34:23.930Z,7.70
2022-10-17T21:36:51.560Z,6.28
2022-10-17T21:41:52.813Z,6.47
2022-10-17T21:44:24.547Z,5.80
2022-10-17T21:46:58.806Z,5.10
2022-10-17T21:49:26.058Z,5.38
2022-10-17T21:51:59.823Z,5.85
2022-10-17T21:54:26.917Z,5.97
2022-10-17T21:57:01.118Z,5.47
2022-10-17T21:59:28.366Z,5.65
2022-10-17T22:01:55.488Z,5.20
2022-10-17T22:04:28.822Z,5.22
2022-10-17T22:06:56.051Z,4.28
2022-10-17T22:09:31.849Z,4.50
2022-10-17T22:11:59.064Z,4.28
2022-10-17T22:14:33.912Z,4.65
2022-10-17T22:17:01.636Z,4.20
2022-10-17T22:19:28.765Z,5.13
2022-10-17T22:22:02.903Z,4.97
2022-10-17T22:24:38.065Z,4.80
2022-10-17T22:27:12.848Z,5.63
2022-10-17T22:29:40.070Z,4.53
2022-10-17T22:32:07.168Z,3.60
2022-10-17T22:34:40.843Z,3.28
2022-10-17T22:37:08.022Z,4.30
2022-10-17T22:39:35.331Z,3.25
2022-10-17T22:42:08.937Z,3.70
2022-10-17T22:44:36.298Z,4.00
2022-10-17T22:47:03.379Z,4.20
2022-10-17T22:49:36.822Z,4.53
2022-10-17T22:52:04.010Z,4.53
2022-10-17T22:54:37.951Z,4.40
2022-10-17T22:57:05.224Z,4.10
2022-10-17T22:59:32.341Z,3.63
2022-10-17T23:02:05.930Z,4.15
2022-10-17T23:04:33.221Z,3.85
2022-10-17T23:07:06.913Z,4.65
2022-10-17T23:09:34.101Z,3.95
2022-10-17T23:12:01.187Z,3.97
2022-10-17T23:14:34.883Z,4.35
2022-10-17T23:17:02.132Z,4.47
2022-10-17T23:19:29.617Z,2.92
2022-10-17T23:22:02.909Z,3.08
2022-10-17T23:24:36.822Z,2.72
2022-10-17T23:27:10.928Z,2.53
2022-10-17T23:29:38.098Z,2.40
2022-10-17T23:32:11.824Z,2.30
2022-10-17T23:34:39.010Z,2.22
2022-10-17T23:37:12.975Z,3.00
2022-10-17T23:39:40.155Z,2.22
2022-10-17T23:42:07.355Z,2.53
2022-10-17T23:44:40.825Z,2.20
2022-10-17T23:47:07.915Z,2.03
2022-10-17T23:49:41.876Z,2.22
2022-10-17T23:52:09.070Z,2.40
2022-10-17T23:54:36.263Z,2.08
2022-10-17T23:57:10.028Z,2.10
2022-10-17T23:59:37.158Z,1.88
